sensor_id;sensor_type;location;lat;lon;timestamp;P1;durP1;ratioP1;P2;durP2;ratioP2
9722;SDS011;4900;49.306;8.500;2023-02-01T00:00:18;9.60;;;6.17;;
9722;SDS011;4900;49.306;8.500;2023-02-01T00:03:22;9.57;;;5.70;;
9722;SDS011;4900;49.306;8.500;2023-02-01T00:06:25;7.70;;;5.80;;
9722;SDS011;4900;49.306;8.500;2023-02-01T00:09:27;7.60;;;5.20;;
9722;SDS011;4900;49.306;8.500;2023-02-01T00:12:30;6.20;;;5.10;;
9722;SDS011;4900;49.306;8.500;2023-02-01T00:15:34;7.50;;;5.03;;
9722;SDS011;4900;49.306;8.500;2023-02-01T00:18:37;8.07;;;5.70;;
9722;SDS011;4900;49.306;8.500;2023-02-01T00:21:40;9.43;;;6.40;;
9722;SDS011;4900;49.306;8.500;2023-02-01T00:24:44;7.43;;;5.43;;
9722;SDS011;4900;49.306;8.500;2023-02-01T00:27:50;7.47;;;5.10;;
9722;SDS011;4900;49.306;8.500;2023-02-01T00:30:57;8.40;;;5.33;;
9722;SDS011;4900;49.306;8.500;2023-02-01T00:34:03;7.30;;;5.13;;
9722;SDS011;4900;49.306;8.500;2023-02-01T00:37:07;5.53;;;4.33;;
9722;SDS011;4900;49.306;8.500;2023-02-01T00:40:10;6.03;;;4.70;;
9722;SDS011;4900;49.306;8.500;2023-02-01T00:43:14;8.13;;;5.07;;
9722;SDS011;4900;49.306;8.500;2023-02-01T00:46:17;7.03;;;4.80;;
9722;SDS011;4900;49.306;8.500;2023-02-01T00:49:21;8.83;;;5.20;;
9722;SDS011;4900;49.306;8.500;2023-02-01T00:52:24;6.10;;;4.20;;
9722;SDS011;4900;49.306;8.500;2023-02-01T00:55:27;8.03;;;4.63;;
9722;SDS011;4900;49.306;8.500;2023-02-01T00:58:30;7.70;;;5.10;;
9722;SDS011;4900;49.306;8.500;2023-02-01T01:01:34;7.67;;;5.20;;
9722;SDS011;4900;49.306;8.500;2023-02-01T01:04:37;8.00;;;5.37;;
9722;SDS011;4900;49.306;8.500;2023-02-01T01:07:40;9.10;;;6.23;;
9722;SDS011;4900;49.306;8.500;2023-02-01T01:10:44;7.00;;;4.70;;
9722;SDS011;4900;49.306;8.500;2023-02-01T01:13:47;8.47;;;5.57;;
9722;SDS011;4900;49.306;8.500;2023-02-01T01:16:51;6.83;;;4.90;;
9722;SDS011;4900;49.306;8.500;2023-02-01T01:19:54;6.87;;;4.80;;
9722;SDS011;4900;49.306;8.500;2023-02-01T01:22:59;7.70;;;5.50;;
9722;SDS011;4900;49.306;8.500;2023-02-01T01:26:06;8.73;;;5.57;;
9722;SDS011;4900;49.306;8.500;2023-02-01T01:29:10;8.43;;;5.67;;
9722;SDS011;4900;49.306;8.500;2023-02-01T01:32:13;7.30;;;5.97;;
9722;SDS011;4900;49.306;8.500;2023-02-01T01:35:16;11.20;;;5.97;;
9722;SDS011;4900;49.306;8.500;2023-02-01T01:38:19;8.63;;;5.80;;
9722;SDS011;4900;49.306;8.500;2023-02-01T01:41:23;10.20;;;5.70;;
9722;SDS011;4900;49.306;8.500;2023-02-01T01:48:00;8.37;;;5.57;;
9722;SDS011;4900;49.306;8.500;2023-02-01T01:51:08;6.27;;;4.40;;
9722;SDS011;4900;49.306;8.500;2023-02-01T01:54:16;8.93;;;5.57;;
9722;SDS011;4900;49.306;8.500;2023-02-01T01:57:37;8.27;;;5.67;;
9722;SDS011;4900;49.306;8.500;2023-02-01T02:00:42;9.23;;;6.40;;
9722;SDS011;4900;49.306;8.500;2023-02-01T02:03:47;11.07;;;7.20;;
9722;SDS011;4900;49.306;8.500;2023-02-01T02:06:59;9.57;;;6.77;;
9722;SDS011;4900;49.306;8.500;2023-02-01T02:10:07;7.27;;;5.77;;
9722;SDS011;4900;49.306;8.500;2023-02-01T02:13:15;7.07;;;4.97;;
9722;SDS011;4900;49.306;8.500;2023-02-01T02:16:23;8.27;;;5.57;;
9722;SDS011;4900;49.306;8.500;2023-02-01T02:23:10;8.17;;;5.93;;
9722;SDS011;4900;49.306;8.500;2023-02-01T02:30:26;7.97;;;5.80;;
9722;SDS011;4900;49.306;8.500;2023-02-01T02:41:02;7.23;;;4.77;;
9722;SDS011;4900;49.306;8.500;2023-02-01T02:44:13;7.70;;;5.50;;
9722;SDS011;4900;49.306;8.500;2023-02-01T02:51:28;6.40;;;4.50;;
9722;SDS011;4900;49.306;8.500;2023-02-01T02:54:56;5.00;;;4.00;;
9722;SDS011;4900;49.306;8.500;2023-02-01T02:58:01;6.43;;;4.50;;
9722;SDS011;4900;49.306;8.500;2023-02-01T03:01:25;6.00;;;4.37;;
9722;SDS011;4900;49.306;8.500;2023-02-01T03:04:51;5.60;;;4.10;;
9722;SDS011;4900;49.306;8.500;2023-02-01T03:08:12;4.43;;;3.73;;
9722;SDS011;4900;49.306;8.500;2023-02-01T03:11:15;6.10;;;4.60;;
9722;SDS011;4900;49.306;8.500;2023-02-01T03:14:18;6.57;;;4.80;;
9722;SDS011;4900;49.306;8.500;2023-02-01T03:17:27;6.67;;;4.67;;
9722;SDS011;4900;49.306;8.500;2023-02-01T03:20:35;6.57;;;4.53;;
9722;SDS011;4900;49.306;8.500;2023-02-01T03:23:41;6.70;;;5.00;;
9722;SDS011;4900;49.306;8.500;2023-02-01T03:26:51;7.33;;;4.87;;
9722;SDS011;4900;49.306;8.500;2023-02-01T03:33:21;6.83;;;4.87;;
9722;SDS011;4900;49.306;8.500;2023-02-01T03:42:44;6.97;;;4.87;;
9722;SDS011;4900;49.306;8.500;2023-02-01T03:45:53;7.57;;;5.37;;
9722;SDS011;4900;49.306;8.500;2023-02-01T03:49:01;7.50;;;5.20;;
9722;SDS011;4900;49.306;8.500;2023-02-01T03:52:09;7.63;;;5.23;;
9722;SDS011;4900;49.306;8.500;2023-02-01T03:55:17;7.33;;;5.53;;
9722;SDS011;4900;49.306;8.500;2023-02-01T03:58:25;8.53;;;5.03;;
9722;SDS011;4900;49.306;8.500;2023-02-01T04:01:28;7.93;;;5.70;;
9722;SDS011;4900;49.306;8.500;2023-02-01T04:04:33;7.87;;;5.30;;
9722;SDS011;4900;49.306;8.500;2023-02-01T04:07:37;7.80;;;4.90;;
9722;SDS011;4900;49.306;8.500;2023-02-01T04:10:40;8.63;;;6.00;;
9722;SDS011;4900;49.306;8.500;2023-02-01T04:13:43;7.67;;;4.90;;
9722;SDS011;4900;49.306;8.500;2023-02-01T04:16:47;8.17;;;5.33;;
9722;SDS011;4900;49.306;8.500;2023-02-01T04:19:50;9.37;;;6.30;;
9722;SDS011;4900;49.306;8.500;2023-02-01T04:22:52;9.00;;;5.60;;
9722;SDS011;4900;49.306;8.500;2023-02-01T04:25:58;9.23;;;5.70;;
9722;SDS011;4900;49.306;8.500;2023-02-01T04:29:02;11.47;;;5.73;;
9722;SDS011;4900;49.306;8.500;2023-02-01T04:32:06;9.60;;;5.27;;
9722;SDS011;4900;49.306;8.500;2023-02-01T04:35:09;7.43;;;5.30;;
9722;SDS011;4900;49.306;8.500;2023-02-01T04:38:12;8.17;;;5.50;;
9722;SDS011;4900;49.306;8.500;2023-02-01T04:41:15;7.87;;;5.03;;
9722;SDS011;4900;49.306;8.500;2023-02-01T04:44:21;7.70;;;5.43;;
9722;SDS011;4900;49.306;8.500;2023-02-01T04:47:24;6.73;;;4.87;;
9722;SDS011;4900;49.306;8.500;2023-02-01T04:50:27;6.47;;;4.77;;
9722;SDS011;4900;49.306;8.500;2023-02-01T04:53:30;9.47;;;5.20;;
9722;SDS011;4900;49.306;8.500;2023-02-01T04:56:33;8.10;;;5.40;;
9722;SDS011;4900;49.306;8.500;2023-02-01T04:59:40;9.37;;;5.23;;
9722;SDS011;4900;49.306;8.500;2023-02-01T05:02:43;9.47;;;5.83;;
9722;SDS011;4900;49.306;8.500;2023-02-01T05:05:49;7.90;;;5.07;;
9722;SDS011;4900;49.306;8.500;2023-02-01T05:08:52;6.97;;;5.47;;
9722;SDS011;4900;49.306;8.500;2023-02-01T05:11:55;7.03;;;5.07;;
9722;SDS011;4900;49.306;8.500;2023-02-01T05:15:17;5.77;;;4.00;;
9722;SDS011;4900;49.306;8.500;2023-02-01T05:18:20;6.27;;;4.27;;
9722;SDS011;4900;49.306;8.500;2023-02-01T05:21:23;5.20;;;4.03;;
9722;SDS011;4900;49.306;8.500;2023-02-01T05:24:27;5.33;;;4.33;;
9722;SDS011;4900;49.306;8.500;2023-02-01T05:27:30;6.07;;;4.07;;
9722;SDS011;4900;49.306;8.500;2023-02-01T05:30:33;4.93;;;3.87;;
9722;SDS011;4900;49.306;8.500;2023-02-01T05:33:37;5.93;;;4.50;;
9722;SDS011;4900;49.306;8.500;2023-02-01T05:36:40;6.87;;;4.20;;
9722;SDS011;4900;49.306;8.500;2023-02-01T05:39:43;6.17;;;4.10;;
9722;SDS011;4900;49.306;8.500;2023-02-01T05:42:46;6.17;;;5.07;;
9722;SDS011;4900;49.306;8.500;2023-02-01T05:45:51;9.70;;;5.80;;
9722;SDS011;4900;49.306;8.500;2023-02-01T05:48:54;9.53;;;6.30;;
9722;SDS011;4900;49.306;8.500;2023-02-01T05:51:57;10.03;;;6.33;;
9722;SDS011;4900;49.306;8.500;2023-02-01T05:55:01;9.97;;;5.80;;
9722;SDS011;4900;49.306;8.500;2023-02-01T05:58:04;7.77;;;5.43;;
9722;SDS011;4900;49.306;8.500;2023-02-01T06:01:08;8.30;;;5.83;;
9722;SDS011;4900;49.306;8.500;2023-02-01T06:04:11;8.33;;;5.50;;
9722;SDS011;4900;49.306;8.500;2023-02-01T06:07:14;11.00;;;5.87;;
9722;SDS011;4900;49.306;8.500;2023-02-01T06:10:17;9.40;;;5.43;;
9722;SDS011;4900;49.306;8.500;2023-02-01T06:13:21;7.37;;;5.23;;
9722;SDS011;4900;49.306;8.500;2023-02-01T06:16:24;7.83;;;5.10;;
9722;SDS011;4900;49.306;8.500;2023-02-01T06:19:27;7.47;;;5.33;;
9722;SDS011;4900;49.306;8.500;2023-02-01T06:22:30;9.40;;;5.50;;
9722;SDS011;4900;49.306;8.500;2023-02-01T06:25:32;7.77;;;4.97;;
9722;SDS011;4900;49.306;8.500;2023-02-01T06:28:35;9.30;;;5.67;;
9722;SDS011;4900;49.306;8.500;2023-02-01T06:31:38;7.23;;;5.50;;
9722;SDS011;4900;49.306;8.500;2023-02-01T06:34:42;8.93;;;5.50;;
9722;SDS011;4900;49.306;8.500;2023-02-01T06:37:45;8.43;;;5.40;;
9722;SDS011;4900;49.306;8.500;2023-02-01T06:40:51;8.97;;;5.90;;
9722;SDS011;4900;49.306;8.500;2023-02-01T06:43:56;8.87;;;5.63;;
9722;SDS011;4900;49.306;8.500;2023-02-01T06:46:59;10.73;;;6.30;;
9722;SDS011;4900;49.306;8.500;2023-02-01T06:50:02;9.90;;;5.60;;
9722;SDS011;4900;49.306;8.500;2023-02-01T06:53:05;11.33;;;7.17;;
9722;SDS011;4900;49.306;8.500;2023-02-01T06:56:08;10.37;;;6.47;;
9722;SDS011;4900;49.306;8.500;2023-02-01T06:59:12;10.27;;;6.30;;
9722;SDS011;4900;49.306;8.500;2023-02-01T07:02:15;10.97;;;7.00;;
9722;SDS011;4900;49.306;8.500;2023-02-01T07:05:18;10.37;;;6.90;;
9722;SDS011;4900;49.306;8.500;2023-02-01T07:08:21;10.53;;;6.80;;
9722;SDS011;4900;49.306;8.500;2023-02-01T07:11:24;11.23;;;6.87;;
9722;SDS011;4900;49.306;8.500;2023-02-01T07:14:29;10.07;;;6.90;;
9722;SDS011;4900;49.306;8.500;2023-02-01T07:21:10;11.23;;;6.27;;
9722;SDS011;4900;49.306;8.500;2023-02-01T07:24:13;9.27;;;5.47;;
9722;SDS011;4900;49.306;8.500;2023-02-01T07:27:17;7.43;;;5.00;;
9722;SDS011;4900;49.306;8.500;2023-02-01T07:30:20;7.57;;;5.03;;
9722;SDS011;4900;49.306;8.500;2023-02-01T07:33:23;6.67;;;4.97;;
9722;SDS011;4900;49.306;8.500;2023-02-01T07:36:28;9.00;;;5.33;;
9722;SDS011;4900;49.306;8.500;2023-02-01T07:39:30;9.23;;;5.57;;
9722;SDS011;4900;49.306;8.500;2023-02-01T07:42:34;12.13;;;6.57;;
9722;SDS011;4900;49.306;8.500;2023-02-01T07:45:37;11.63;;;6.60;;
9722;SDS011;4900;49.306;8.500;2023-02-01T07:48:40;13.23;;;6.63;;
9722;SDS011;4900;49.306;8.500;2023-02-01T07:51:43;9.50;;;6.80;;
9722;SDS011;4900;49.306;8.500;2023-02-01T07:54:46;13.17;;;6.63;;
9722;SDS011;4900;49.306;8.500;2023-02-01T07:57:49;13.77;;;7.47;;
9722;SDS011;4900;49.306;8.500;2023-02-01T08:00:52;11.33;;;7.27;;
9722;SDS011;4900;49.306;8.500;2023-02-01T08:04:14;13.53;;;7.60;;
9722;SDS011;4900;49.306;8.500;2023-02-01T08:07:17;12.77;;;7.47;;
9722;SDS011;4900;49.306;8.500;2023-02-01T08:10:20;12.67;;;6.90;;
9722;SDS011;4900;49.306;8.500;2023-02-01T08:13:23;11.33;;;7.07;;
9722;SDS011;4900;49.306;8.500;2023-02-01T08:16:26;15.93;;;7.43;;
9722;SDS011;4900;49.306;8.500;2023-02-01T08:19:29;13.03;;;8.27;;
9722;SDS011;4900;49.306;8.500;2023-02-01T08:22:32;11.97;;;7.10;;
9722;SDS011;4900;49.306;8.500;2023-02-01T08:25:35;13.47;;;8.10;;
9722;SDS011;4900;49.306;8.500;2023-02-01T08:28:39;8.83;;;6.43;;
9722;SDS011;4900;49.306;8.500;2023-02-01T08:31:44;12.60;;;6.73;;
9722;SDS011;4900;49.306;8.500;2023-02-01T08:34:47;11.17;;;6.37;;
9722;SDS011;4900;49.306;8.500;2023-02-01T08:37:50;11.03;;;6.23;;
9722;SDS011;4900;49.306;8.500;2023-02-01T08:40:53;12.27;;;6.00;;
9722;SDS011;4900;49.306;8.500;2023-02-01T08:43:56;10.60;;;6.40;;
9722;SDS011;4900;49.306;8.500;2023-02-01T08:47:01;11.93;;;6.67;;
9722;SDS011;4900;49.306;8.500;2023-02-01T08:50:03;13.23;;;6.30;;
9722;SDS011;4900;49.306;8.500;2023-02-01T08:53:07;10.57;;;5.90;;
9722;SDS011;4900;49.306;8.500;2023-02-01T08:56:10;13.23;;;5.07;;
9722;SDS011;4900;49.306;8.500;2023-02-01T08:59:15;13.27;;;5.53;;
9722;SDS011;4900;49.306;8.500;2023-02-01T09:02:18;15.67;;;6.40;;
9722;SDS011;4900;49.306;8.500;2023-02-01T09:05:21;7.07;;;4.97;;
9722;SDS011;4900;49.306;8.500;2023-02-01T09:08:28;13.83;;;6.07;;
9722;SDS011;4900;49.306;8.500;2023-02-01T09:11:32;13.60;;;5.60;;
9722;SDS011;4900;49.306;8.500;2023-02-01T09:14:35;10.13;;;5.90;;
9722;SDS011;4900;49.306;8.500;2023-02-01T09:17:38;9.93;;;5.90;;
9722;SDS011;4900;49.306;8.500;2023-02-01T09:20:42;9.73;;;4.90;;
9722;SDS011;4900;49.306;8.500;2023-02-01T09:23:44;16.93;;;8.10;;
9722;SDS011;4900;49.306;8.500;2023-02-01T09:26:51;12.27;;;5.87;;
9722;SDS011;4900;49.306;8.500;2023-02-01T09:29:55;12.47;;;5.63;;
9722;SDS011;4900;49.306;8.500;2023-02-01T09:32:58;12.23;;;5.87;;
9722;SDS011;4900;49.306;8.500;2023-02-01T09:36:02;10.80;;;5.30;;
9722;SDS011;4900;49.306;8.500;2023-02-01T09:39:07;10.33;;;5.10;;
9722;SDS011;4900;49.306;8.500;2023-02-01T09:42:19;11.70;;;6.40;;
9722;SDS011;4900;49.306;8.500;2023-02-01T09:49:10;10.27;;;4.53;;
9722;SDS011;4900;49.306;8.500;2023-02-01T09:52:17;11.17;;;4.37;;
9722;SDS011;4900;49.306;8.500;2023-02-01T10:02:23;9.37;;;3.67;;
9722;SDS011;4900;49.306;8.500;2023-02-01T10:25:56;9.03;;;3.47;;
9722;SDS011;4900;49.306;8.500;2023-02-01T10:29:12;6.53;;;3.50;;
9722;SDS011;4900;49.306;8.500;2023-02-01T10:32:23;8.57;;;4.17;;
9722;SDS011;4900;49.306;8.500;2023-02-01T10:35:31;11.53;;;3.87;;
9722;SDS011;4900;49.306;8.500;2023-02-01T10:38:39;14.47;;;4.33;;
9722;SDS011;4900;49.306;8.500;2023-02-01T10:41:42;13.57;;;4.40;;
9722;SDS011;4900;49.306;8.500;2023-02-01T10:44:48;10.33;;;3.60;;
9722;SDS011;4900;49.306;8.500;2023-02-01T10:47:51;10.47;;;4.63;;
9722;SDS011;4900;49.306;8.500;2023-02-01T10:51:05;10.23;;;4.90;;
9722;SDS011;4900;49.306;8.500;2023-02-01T10:54:16;10.33;;;4.07;;
9722;SDS011;4900;49.306;8.500;2023-02-01T10:57:24;9.00;;;3.93;;
9722;SDS011;4900;49.306;8.500;2023-02-01T11:00:37;12.63;;;4.47;;
9722;SDS011;4900;49.306;8.500;2023-02-01T11:03:53;16.60;;;6.87;;
9722;SDS011;4900;49.306;8.500;2023-02-01T11:10:34;9.53;;;4.77;;
9722;SDS011;4900;49.306;8.500;2023-02-01T11:13:43;14.00;;;4.60;;
9722;SDS011;4900;49.306;8.500;2023-02-01T11:16:47;12.43;;;4.83;;
9722;SDS011;4900;49.306;8.500;2023-02-01T11:19:59;10.53;;;4.97;;
9722;SDS011;4900;49.306;8.500;2023-02-01T11:23:03;9.43;;;5.50;;
9722;SDS011;4900;49.306;8.500;2023-02-01T11:26:10;16.07;;;5.63;;
9722;SDS011;4900;49.306;8.500;2023-02-01T11:29:21;14.30;;;5.47;;
9722;SDS011;4900;49.306;8.500;2023-02-01T11:32:32;12.50;;;5.00;;
9722;SDS011;4900;49.306;8.500;2023-02-01T11:35:37;9.93;;;4.13;;
9722;SDS011;4900;49.306;8.500;2023-02-01T11:42:16;13.67;;;8.53;;
9722;SDS011;4900;49.306;8.500;2023-02-01T11:45:29;13.13;;;6.50;;
9722;SDS011;4900;49.306;8.500;2023-02-01T11:48:34;11.10;;;4.70;;
9722;SDS011;4900;49.306;8.500;2023-02-01T11:51:50;12.40;;;4.67;;
9722;SDS011;4900;49.306;8.500;2023-02-01T12:05:41;10.20;;;5.00;;
9722;SDS011;4900;49.306;8.500;2023-02-01T12:12:11;12.70;;;5.37;;
9722;SDS011;4900;49.306;8.500;2023-02-01T12:22:18;10.77;;;4.43;;
9722;SDS011;4900;49.306;8.500;2023-02-01T12:29:25;10.47;;;4.37;;
9722;SDS011;4900;49.306;8.500;2023-02-01T12:39:23;8.67;;;4.60;;
9722;SDS011;4900;49.306;8.500;2023-02-01T12:42:43;13.13;;;4.93;;
9722;SDS011;4900;49.306;8.500;2023-02-01T12:49:17;12.60;;;3.63;;
9722;SDS011;4900;49.306;8.500;2023-02-01T12:52:44;8.57;;;3.17;;
9722;SDS011;4900;49.306;8.500;2023-02-01T12:55:55;12.13;;;4.47;;
9722;SDS011;4900;49.306;8.500;2023-02-01T12:59:04;12.77;;;4.23;;
9722;SDS011;4900;49.306;8.500;2023-02-01T13:02:19;10.50;;;3.93;;
9722;SDS011;4900;49.306;8.500;2023-02-01T13:05:33;11.97;;;3.80;;
9722;SDS011;4900;49.306;8.500;2023-02-01T13:12:25;14.40;;;6.33;;
9722;SDS011;4900;49.306;8.500;2023-02-01T13:15:39;16.43;;;6.77;;
9722;SDS011;4900;49.306;8.500;2023-02-01T13:18:47;16.60;;;5.57;;
9722;SDS011;4900;49.306;8.500;2023-02-01T13:21:57;12.90;;;4.00;;
9722;SDS011;4900;49.306;8.500;2023-02-01T13:25:07;7.90;;;3.40;;
9722;SDS011;4900;49.306;8.500;2023-02-01T13:28:17;9.93;;;3.40;;
9722;SDS011;4900;49.306;8.500;2023-02-01T13:35:32;8.70;;;3.23;;
9722;SDS011;4900;49.306;8.500;2023-02-01T13:42:15;13.63;;;3.47;;
9722;SDS011;4900;49.306;8.500;2023-02-01T13:45:26;8.57;;;3.10;;
9722;SDS011;4900;49.306;8.500;2023-02-01T13:48:39;10.10;;;3.80;;
9722;SDS011;4900;49.306;8.500;2023-02-01T13:51:55;10.80;;;3.70;;
9722;SDS011;4900;49.306;8.500;2023-02-01T13:55:00;6.67;;;2.83;;
9722;SDS011;4900;49.306;8.500;2023-02-01T14:11:30;9.73;;;3.23;;
9722;SDS011;4900;49.306;8.500;2023-02-01T14:14:44;13.80;;;3.80;;
9722;SDS011;4900;49.306;8.500;2023-02-01T14:17:48;10.83;;;3.90;;
9722;SDS011;4900;49.306;8.500;2023-02-01T14:20:51;8.97;;;3.30;;
9722;SDS011;4900;49.306;8.500;2023-02-01T14:27:34;8.20;;;4.30;;
9722;SDS011;4900;49.306;8.500;2023-02-01T14:30:38;9.37;;;3.30;;
9722;SDS011;4900;49.306;8.500;2023-02-01T14:33:44;9.63;;;3.00;;
9722;SDS011;4900;49.306;8.500;2023-02-01T14:36:54;11.10;;;2.93;;
9722;SDS011;4900;49.306;8.500;2023-02-01T14:53:40;10.43;;;3.23;;
9722;SDS011;4900;49.306;8.500;2023-02-01T14:56:45;7.83;;;3.30;;
9722;SDS011;4900;49.306;8.500;2023-02-01T14:59:49;9.20;;;2.70;;
9722;SDS011;4900;49.306;8.500;2023-02-01T15:06:40;9.67;;;3.10;;
9722;SDS011;4900;49.306;8.500;2023-02-01T15:09:47;11.57;;;3.17;;
9722;SDS011;4900;49.306;8.500;2023-02-01T15:12:51;10.83;;;3.30;;
9722;SDS011;4900;49.306;8.500;2023-02-01T15:16:01;10.63;;;3.00;;
9722;SDS011;4900;49.306;8.500;2023-02-01T15:19:10;9.40;;;3.83;;
9722;SDS011;4900;49.306;8.500;2023-02-01T15:22:18;9.03;;;3.03;;
9722;SDS011;4900;49.306;8.500;2023-02-01T15:25:23;10.10;;;3.30;;
9722;SDS011;4900;49.306;8.500;2023-02-01T15:28:30;9.30;;;2.80;;
9722;SDS011;4900;49.306;8.500;2023-02-01T15:31:43;11.17;;;2.80;;
9722;SDS011;4900;49.306;8.500;2023-02-01T15:34:49;9.53;;;2.93;;
9722;SDS011;4900;49.306;8.500;2023-02-01T15:37:52;10.20;;;3.40;;
9722;SDS011;4900;49.306;8.500;2023-02-01T15:44:30;7.97;;;2.70;;
9722;SDS011;4900;49.306;8.500;2023-02-01T15:47:34;9.43;;;4.00;;
9722;SDS011;4900;49.306;8.500;2023-02-01T15:50:38;6.97;;;3.10;;
9722;SDS011;4900;49.306;8.500;2023-02-01T15:53:50;7.53;;;3.10;;
9722;SDS011;4900;49.306;8.500;2023-02-01T15:56:58;11.67;;;3.87;;
9722;SDS011;4900;49.306;8.500;2023-02-01T16:00:07;10.93;;;3.77;;
9722;SDS011;4900;49.306;8.500;2023-02-01T16:03:37;9.80;;;3.30;;
9722;SDS011;4900;49.306;8.500;2023-02-01T16:06:57;11.20;;;3.70;;
9722;SDS011;4900;49.306;8.500;2023-02-01T16:10:20;8.60;;;3.23;;
9722;SDS011;4900;49.306;8.500;2023-02-01T16:13:29;9.60;;;2.90;;
9722;SDS011;4900;49.306;8.500;2023-02-01T16:16:32;11.57;;;3.53;;
9722;SDS011;4900;49.306;8.500;2023-02-01T16:19:35;10.33;;;3.20;;
9722;SDS011;4900;49.306;8.500;2023-02-01T16:22:38;10.90;;;3.37;;
9722;SDS011;4900;49.306;8.500;2023-02-01T16:25:41;10.03;;;3.67;;
9722;SDS011;4900;49.306;8.500;2023-02-01T16:28:44;9.93;;;3.87;;
9722;SDS011;4900;49.306;8.500;2023-02-01T16:31:47;9.20;;;3.20;;
9722;SDS011;4900;49.306;8.500;2023-02-01T16:34:51;10.83;;;3.37;;
9722;SDS011;4900;49.306;8.500;2023-02-01T16:37:55;9.10;;;3.40;;
9722;SDS011;4900;49.306;8.500;2023-02-01T16:40:58;9.27;;;3.10;;
9722;SDS011;4900;49.306;8.500;2023-02-01T16:44:02;9.33;;;3.63;;
9722;SDS011;4900;49.306;8.500;2023-02-01T16:47:26;8.33;;;3.53;;
9722;SDS011;4900;49.306;8.500;2023-02-01T16:50:28;15.53;;;3.73;;
9722;SDS011;4900;49.306;8.500;2023-02-01T16:53:33;9.90;;;3.73;;
9722;SDS011;4900;49.306;8.500;2023-02-01T16:56:37;9.20;;;3.87;;
9722;SDS011;4900;49.306;8.500;2023-02-01T16:59:44;11.33;;;4.00;;
9722;SDS011;4900;49.306;8.500;2023-02-01T17:02:47;8.30;;;3.43;;
9722;SDS011;4900;49.306;8.500;2023-02-01T17:05:51;9.43;;;3.57;;
9722;SDS011;4900;49.306;8.500;2023-02-01T17:08:57;11.40;;;4.00;;
9722;SDS011;4900;49.306;8.500;2023-02-01T17:12:02;12.43;;;4.43;;
9722;SDS011;4900;49.306;8.500;2023-02-01T17:15:06;12.43;;;3.60;;
9722;SDS011;4900;49.306;8.500;2023-02-01T17:18:10;9.10;;;4.23;;
9722;SDS011;4900;49.306;8.500;2023-02-01T17:21:17;8.80;;;3.07;;
9722;SDS011;4900;49.306;8.500;2023-02-01T17:24:21;12.80;;;4.37;;
9722;SDS011;4900;49.306;8.500;2023-02-01T17:27:27;9.50;;;3.30;;
9722;SDS011;4900;49.306;8.500;2023-02-01T17:30:31;10.17;;;3.70;;
9722;SDS011;4900;49.306;8.500;2023-02-01T17:33:35;14.00;;;4.80;;
9722;SDS011;4900;49.306;8.500;2023-02-01T17:36:39;9.37;;;3.27;;
9722;SDS011;4900;49.306;8.500;2023-02-01T17:39:41;10.87;;;3.50;;
9722;SDS011;4900;49.306;8.500;2023-02-01T17:42:57;9.03;;;3.57;;
9722;SDS011;4900;49.306;8.500;2023-02-01T17:46:01;11.00;;;3.70;;
9722;SDS011;4900;49.306;8.500;2023-02-01T17:49:15;9.53;;;3.43;;
9722;SDS011;4900;49.306;8.500;2023-02-01T17:52:18;9.47;;;3.80;;
9722;SDS011;4900;49.306;8.500;2023-02-01T17:55:23;11.57;;;3.53;;
9722;SDS011;4900;49.306;8.500;2023-02-01T17:58:27;7.07;;;3.00;;
9722;SDS011;4900;49.306;8.500;2023-02-01T18:01:34;11.83;;;3.17;;
9722;SDS011;4900;49.306;8.500;2023-02-01T18:04:37;12.97;;;3.60;;
9722;SDS011;4900;49.306;8.500;2023-02-01T18:07:41;8.87;;;3.17;;
9722;SDS011;4900;49.306;8.500;2023-02-01T18:10:44;11.60;;;3.50;;
9722;SDS011;4900;49.306;8.500;2023-02-01T18:13:51;11.80;;;3.80;;
9722;SDS011;4900;49.306;8.500;2023-02-01T18:16:55;10.47;;;3.53;;
9722;SDS011;4900;49.306;8.500;2023-02-01T18:19:58;9.73;;;3.30;;
9722;SDS011;4900;49.306;8.500;2023-02-01T18:23:02;14.17;;;3.60;;
9722;SDS011;4900;49.306;8.500;2023-02-01T18:26:04;7.93;;;3.50;;
9722;SDS011;4900;49.306;8.500;2023-02-01T18:29:07;11.37;;;3.70;;
9722;SDS011;4900;49.306;8.500;2023-02-01T18:32:11;8.03;;;3.53;;
9722;SDS011;4900;49.306;8.500;2023-02-01T18:35:15;12.87;;;3.73;;
9722;SDS011;4900;49.306;8.500;2023-02-01T18:38:23;11.03;;;3.87;;
9722;SDS011;4900;49.306;8.500;2023-02-01T18:41:27;10.20;;;3.40;;
9722;SDS011;4900;49.306;8.500;2023-02-01T18:44:30;9.13;;;3.83;;
9722;SDS011;4900;49.306;8.500;2023-02-01T18:47:33;12.33;;;3.70;;
9722;SDS011;4900;49.306;8.500;2023-02-01T18:50:37;9.17;;;3.70;;
9722;SDS011;4900;49.306;8.500;2023-02-01T18:53:41;13.93;;;4.90;;
9722;SDS011;4900;49.306;8.500;2023-02-01T18:56:44;13.23;;;4.60;;
9722;SDS011;4900;49.306;8.500;2023-02-01T18:59:47;20.77;;;10.17;;
9722;SDS011;4900;49.306;8.500;2023-02-01T19:02:50;10.37;;;4.20;;
9722;SDS011;4900;49.306;8.500;2023-02-01T19:05:54;8.83;;;4.50;;
9722;SDS011;4900;49.306;8.500;2023-02-01T19:08:58;12.93;;;3.60;;
9722;SDS011;4900;49.306;8.500;2023-02-01T19:12:00;11.70;;;3.47;;
9722;SDS011;4900;49.306;8.500;2023-02-01T19:15:06;10.27;;;3.40;;
9722;SDS011;4900;49.306;8.500;2023-02-01T19:18:14;10.73;;;3.87;;
9722;SDS011;4900;49.306;8.500;2023-02-01T19:21:21;12.47;;;3.80;;
9722;SDS011;4900;49.306;8.500;2023-02-01T19:24:24;15.70;;;3.40;;
9722;SDS011;4900;49.306;8.500;2023-02-01T19:27:29;9.80;;;3.07;;
9722;SDS011;4900;49.306;8.500;2023-02-01T19:30:33;5.27;;;2.43;;
9722;SDS011;4900;49.306;8.500;2023-02-01T19:33:36;9.37;;;3.10;;
9722;SDS011;4900;49.306;8.500;2023-02-01T19:36:39;11.83;;;3.77;;
9722;SDS011;4900;49.306;8.500;2023-02-01T19:39:43;11.43;;;3.70;;
9722;SDS011;4900;49.306;8.500;2023-02-01T19:42:47;8.83;;;3.30;;
9722;SDS011;4900;49.306;8.500;2023-02-01T19:45:51;9.83;;;3.50;;
9722;SDS011;4900;49.306;8.500;2023-02-01T19:48:55;16.33;;;3.73;;
9722;SDS011;4900;49.306;8.500;2023-02-01T19:51:58;10.60;;;3.73;;
9722;SDS011;4900;49.306;8.500;2023-02-01T19:55:01;10.60;;;4.13;;
9722;SDS011;4900;49.306;8.500;2023-02-01T19:58:06;13.63;;;4.30;;
9722;SDS011;4900;49.306;8.500;2023-02-01T20:01:08;16.83;;;5.67;;
9722;SDS011;4900;49.306;8.500;2023-02-01T20:04:15;10.73;;;4.00;;
9722;SDS011;4900;49.306;8.500;2023-02-01T20:07:19;12.60;;;4.03;;
9722;SDS011;4900;49.306;8.500;2023-02-01T20:10:22;10.87;;;3.83;;
9722;SDS011;4900;49.306;8.500;2023-02-01T20:13:25;13.40;;;3.80;;
9722;SDS011;4900;49.306;8.500;2023-02-01T20:16:28;11.10;;;3.80;;
9722;SDS011;4900;49.306;8.500;2023-02-01T20:19:31;9.03;;;3.07;;
9722;SDS011;4900;49.306;8.500;2023-02-01T20:22:35;13.00;;;3.57;;
9722;SDS011;4900;49.306;8.500;2023-02-01T20:25:38;16.00;;;3.90;;
9722;SDS011;4900;49.306;8.500;2023-02-01T20:28:40;9.73;;;3.50;;
9722;SDS011;4900;49.306;8.500;2023-02-01T20:31:44;13.50;;;3.67;;
9722;SDS011;4900;49.306;8.500;2023-02-01T20:34:47;11.37;;;3.20;;
9722;SDS011;4900;49.306;8.500;2023-02-01T20:37:54;10.53;;;2.80;;
9722;SDS011;4900;49.306;8.500;2023-02-01T20:41:05;12.47;;;3.40;;
9722;SDS011;4900;49.306;8.500;2023-02-01T20:44:10;10.57;;;3.50;;
9722;SDS011;4900;49.306;8.500;2023-02-01T20:47:13;10.07;;;3.20;;
9722;SDS011;4900;49.306;8.500;2023-02-01T20:50:16;11.00;;;3.03;;
9722;SDS011;4900;49.306;8.500;2023-02-01T20:53:20;9.07;;;3.10;;
9722;SDS011;4900;49.306;8.500;2023-02-01T20:56:24;13.70;;;3.37;;
9722;SDS011;4900;49.306;8.500;2023-02-01T20:59:28;8.77;;;3.10;;
9722;SDS011;4900;49.306;8.500;2023-02-01T21:02:31;8.83;;;3.57;;
9722;SDS011;4900;49.306;8.500;2023-02-01T21:05:34;8.87;;;3.33;;
9722;SDS011;4900;49.306;8.500;2023-02-01T21:08:43;11.10;;;3.60;;
9722;SDS011;4900;49.306;8.500;2023-02-01T21:11:47;8.67;;;2.80;;
9722;SDS011;4900;49.306;8.500;2023-02-01T21:14:53;15.67;;;4.00;;
9722;SDS011;4900;49.306;8.500;2023-02-01T21:17:57;10.33;;;3.20;;
9722;SDS011;4900;49.306;8.500;2023-02-01T21:21:04;9.07;;;3.13;;
9722;SDS011;4900;49.306;8.500;2023-02-01T21:24:16;6.83;;;2.83;;
9722;SDS011;4900;49.306;8.500;2023-02-01T21:27:19;12.37;;;3.90;;
9722;SDS011;4900;49.306;8.500;2023-02-01T21:30:23;11.77;;;3.30;;
9722;SDS011;4900;49.306;8.500;2023-02-01T21:33:26;10.77;;;3.50;;
9722;SDS011;4900;49.306;8.500;2023-02-01T21:36:28;9.47;;;3.50;;
9722;SDS011;4900;49.306;8.500;2023-02-01T21:39:37;10.87;;;3.57;;
9722;SDS011;4900;49.306;8.500;2023-02-01T21:42:40;11.20;;;3.20;;
9722;SDS011;4900;49.306;8.500;2023-02-01T21:45:47;11.23;;;3.50;;